Terminal Aerodrome Forecast
Issued by NWS

Home | Current Version | Previous Version | Text Only | Print | Product List | Glossary On
Versions: 1 2 3 4 5 6 7 8 9 10 11 12 13 14 15 16
569
FTUS44 KBMX 280419 AAB
TAFTCL
TAF AMD
KTCL 280419Z 2804/2824 20005KT P6SM BKN025
     FM280800 20005KT P6SM BKN015
     FM281500 23008KT P6SM VCSH BKN025
     FM281800 23010KT P6SM VCTS BKN050CB=

USA.gov is the U.S. government's official web portal to all federal, state and local government web resources and services.